Spaceon02064 — ASD — position and weather

sailwx.info

Track history (hours):
 
Tides and Currents Weather Stations Pressure Air Temp Water Temp Dewpoint Dewpoint Depression Visibility Wind Speed Wind Dir Waves Ship Positions

Spaceon02064

Last reported at 2016-Jul-01 00:28 UTC. Time now 2016-Jul-01 01:03 UTC.
Position N 24°46' E 118°47'.

Length 6 m.

Type: Ship. MMSI: 200902064.

Date/timePositionNaut miles runAvg speedWind from/ knotsBaromVisibWave heightAir tempDewpointWater temp
2016-Jul-01 00:28N 24°46' E 118°47'4207058.2
2016-Jul-01 00:25N 31°19' E 121°33'0 0.0
2016-Jun-30 23:27N 31°19' E 121°33'0 0.0
2016-Jun-30 22:27N 31°19' E 121°33'0 0.0
2016-Jun-30 18:18N 31°19' E 121°33'0 0.0
2016-Jun-30 17:18N 31°19' E 121°33'0 0.0
2016-Jun-30 16:30N 31°19' E 121°33'848281.3
2016-Jun-30 13:29N 21°19' E 110°25'8482901.5
2016-Jun-30 13:11N 31°19' E 121°33'0 0.4
2016-Jun-30 12:33N 31°19' E 121°33'848423.9
2016-Jun-30 10:32N 21°19' E 110°25'84815989.7
2016-Jun-30 10:29N 31°20' E 121°32'848901.7
2016-Jun-30 09:33N 21°19' E 110°25'84813945.4
2016-Jun-30 09:29N 31°20' E 121°32'848859.8
2016-Jun-30 08:30N 21°19' E 110°25'8483779.7
2016-Jun-30 08:17N 31°20' E 121°32'0 0.0
2016-Jun-30 07:32N 31°20' E 121°32'8488483.8
2016-Jun-30 07:26N 21°19' E 110°25'848942.1
2016-Jun-30 06:32N 31°20' E 121°32'848105316.9
2016-Jun-30 06:32N 21°19' E 110°25'848775.4
2016-Jun-30 05:26N 31°20' E 121°32'0 0.0
2016-Jun-30 04:32N 31°20' E 121°32'848810.6
2016-Jun-30 03:29N 21°19' E 110°25'848190887.7
2016-Jun-30 03:29N 31°20' E 121°32'0 0.0
2016-Jun-30 02:32N 31°20' E 121°32'8482063.7
2016-Jun-30 02:07N 21°19' E 110°25'8481438.0
2016-Jun-30 01:32N 31°21' E 121°32'3 3.3
2016-Jun-30 00:33N 31°23' E 121°34'666590.2
2016-Jun-29 23:26N 23°03' E 113°19'6687313.4
2016-Jun-29 23:20N 31°18' E 121°44'664829.3
2016-Jun-29 22:32N 23°04' E 113°25'6172076.7
2016-Jun-29 22:14N 29°45' E 122°09'615853.1
2016-Jun-29 21:31N 23°05' E 113°28'0 0.0
2016-Jun-29 20:28N 23°05' E 113°28'0 0.0
2016-Jun-29 19:25N 23°05' E 113°28'0 0.0
2016-Jun-29 18:31N 23°05' E 113°28'0 0.1
2016-Jun-29 17:25N 23°05' E 113°28'0 0.0
2016-Jun-29 16:28N 23°05' E 113°28'0 0.0
2016-Jun-29 15:25N 23°05' E 113°28'0 0.0
2016-Jun-29 14:31N 23°05' E 113°28'0 0.0
2016-Jun-29 13:28N 23°05' E 113°28'0 0.1
2016-Jun-29 12:28N 23°05' E 113°28'0 0.0
2016-Jun-29 11:28N 23°05' E 113°28'0 0.0
2016-Jun-29 10:31N 23°05' E 113°28'0 0.0
2016-Jun-29 09:13N 23°05' E 113°28'0 0.0
2016-Jun-29 08:34N 23°05' E 113°28'200400.6
2016-Jun-29 08:04N 21°19' E 110°25'0 0.0
2016-Jun-29 07:33N 21°19' E 110°25'81671.4
2016-Jun-28 20:08N 30°02' E 121°59'5 8.7
2016-Jun-28 19:31N 29°58' E 122°03'8 8.3
2016-Jun-28 18:31N 29°51' E 122°08'11 5.6
2016-Jun-28 16:31N 29°42' E 122°02'805268.6
2016-Jun-28 13:31N 21°19' E 110°25'0 0.1
2016-Jun-28 12:29N 21°19' E 110°25'0 0.0
2016-Jun-28 11:12N 21°19' E 110°25'0 0.0
2016-Jun-28 10:32N 21°19' E 110°25'0 0.0
2016-Jun-28 09:33N 21°19' E 110°25'0 0.0
2016-Jun-28 08:33N 21°19' E 110°25'0 0.0
2016-Jun-28 07:33N 21°19' E 110°25'0 0.0
2016-Jun-28 06:33N 21°19' E 110°25'81361.5
2016-Jun-27 17:20N 29°46' E 122°08'618128.9
2016-Jun-27 12:33N 23°03' E 113°25'197741.6
2016-Jun-27 12:17N 21°19' E 110°25'0 0.0
2016-Jun-27 11:32N 21°19' E 110°25'2001590.2
2016-Jun-27 11:25N 23°05' E 113°28'20018.3
2016-Jun-27 00:29N 21°19' E 110°25'0 0.0
2016-Jun-26 09:32N 21°19' E 110°25'0 0.0
2016-Jun-26 08:33N 21°19' E 110°25'0 0.0
2016-Jun-26 05:24N 21°19' E 110°25'0 0.0
2016-Jun-26 03:33N 21°19' E 110°25'0 0.0
2016-Jun-26 00:22N 21°18' E 110°25'0 0.0
2016-Jun-25 10:30N 21°18' E 110°25'80660.4
2016-Jun-24 21:10N 29°43' E 122°02'5 8.5
2016-Jun-24 20:33N 29°48' E 122°04'8 7.6
2016-Jun-24 19:31N 29°55' E 122°08'7 7.1
2016-Jun-24 18:33N 29°59' E 122°02'9 6.2
2016-Jun-24 17:09N 30°07' E 121°57'21 1.4
2016-Jun-24 01:32N 29°48' E 122°06'9798.1
2016-Jun-24 00:33N 31°21' E 121°38'7 7.2
2016-Jun-23 23:33N 31°22' E 121°30'3 1.2
2016-Jun-23 21:19N 31°20' E 121°32'0 0.0
2016-Jun-23 16:04N 31°20' E 121°32'3 5.1
2016-Jun-23 15:33N 31°18' E 121°34'44554.0
2016-Jun-23 07:19N 38°43' E 121°38'44866.0
2016-Jun-23 00:32N 31°16' E 121°32'0 0.0
2016-Jun-22 22:29N 31°16' E 121°32'0 0.0
2016-Jun-22 21:29N 31°16' E 121°32'0 0.0
2016-Jun-22 20:32N 31°16' E 121°32'0 0.0
2016-Jun-22 18:10N 31°16' E 121°32'497587.0
2016-Jun-22 17:20N 38°58' E 117°50'4979033.2
2016-Jun-22 17:16N 31°16' E 121°32'499641.0
2016-Jun-22 16:30N 38°59' E 117°45'49920884.3
2016-Jun-22 16:28N 31°16' E 121°32'499517.5
2016-Jun-22 15:30N 38°59' E 117°45'49911440.1
2016-Jun-22 15:28N 31°16' E 121°32'0 0.0
2016-Jun-22 13:25N 31°16' E 121°32'0 0.0
2016-Jun-22 12:19N 31°16' E 121°32'0 0.0
2016-Jun-22 11:20N 31°16' E 121°32'0 0.0
2016-Jun-22 10:22N 31°16' E 121°32'0 0.0
2016-Jun-22 09:25N 31°16' E 121°32'0 0.0
2016-Jun-22 08:25N 31°16' E 121°32'0 0.0
2016-Jun-22 07:31N 31°16' E 121°32'0 0.1
2016-Jun-22 06:31N 31°16' E 121°32'0 0.1
2016-Jun-22 05:33N 31°16' E 121°32'0 0.0
2016-Jun-22 04:33N 31°16' E 121°32'0 0.0
2016-Jun-22 03:09N 31°16' E 121°32'0 0.0
2016-Jun-22 01:24N 31°16' E 121°32'0 0.0
2016-Jun-22 00:27N 31°16' E 121°32'0 0.0
2016-Jun-21 23:30N 31°16' E 121°32'0 0.0
2016-Jun-21 22:30N 31°16' E 121°32'0 0.0
2016-Jun-21 21:21N 31°16' E 121°32'0 0.0
2016-Jun-21 20:27N 31°16' E 121°32'0 0.0
2016-Jun-21 17:29N 31°16' E 121°32'0 0.0
2016-Jun-21 16:32N 31°16' E 121°32'0 0.0
2016-Jun-21 10:08N 31°16' E 121°32'0 0.0
2016-Jun-21 08:32N 31°16' E 121°32'0 0.1
2016-Jun-21 07:27N 31°16' E 121°32'  
Track history (hours):
 
Tides and Currents Weather Stations Pressure Air Temp Water Temp Dewpoint Dewpoint Depression Visibility Wind Speed Wind Dir Waves Ship Positions

Spaceon02064

Last reported at 2016-Jul-01 00:28 UTC. Time now 2016-Jul-01 01:03 UTC.
Position N 24°46' E 118°47'.

Length 6 m.

Type: Ship. MMSI: 200902064.

Date/timePositionNaut miles runAvg speedWind from/ knotsBaromVisibWave heightAir tempDewpointWater temp
2016-Jul-01 00:28N 24°46' E 118°47'4207058.2
2016-Jul-01 00:25N 31°19' E 121°33'0 0.0
2016-Jun-30 23:27N 31°19' E 121°33'0 0.0
2016-Jun-30 22:27N 31°19' E 121°33'0 0.0
2016-Jun-30 18:18N 31°19' E 121°33'0 0.0
2016-Jun-30 17:18N 31°19' E 121°33'0 0.0
2016-Jun-30 16:30N 31°19' E 121°33'848281.3
2016-Jun-30 13:29N 21°19' E 110°25'8482901.5
2016-Jun-30 13:11N 31°19' E 121°33'0 0.4
2016-Jun-30 12:33N 31°19' E 121°33'848423.9
2016-Jun-30 10:32N 21°19' E 110°25'84815989.7
2016-Jun-30 10:29N 31°20' E 121°32'848901.7
2016-Jun-30 09:33N 21°19' E 110°25'84813945.4
2016-Jun-30 09:29N 31°20' E 121°32'848859.8
2016-Jun-30 08:30N 21°19' E 110°25'8483779.7
2016-Jun-30 08:17N 31°20' E 121°32'0 0.0
2016-Jun-30 07:32N 31°20' E 121°32'8488483.8
2016-Jun-30 07:26N 21°19' E 110°25'848942.1
2016-Jun-30 06:32N 31°20' E 121°32'848105316.9
2016-Jun-30 06:32N 21°19' E 110°25'848775.4
2016-Jun-30 05:26N 31°20' E 121°32'0 0.0
2016-Jun-30 04:32N 31°20' E 121°32'848810.6
2016-Jun-30 03:29N 21°19' E 110°25'848190887.7
2016-Jun-30 03:29N 31°20' E 121°32'0 0.0
2016-Jun-30 02:32N 31°20' E 121°32'8482063.7
2016-Jun-30 02:07N 21°19' E 110°25'8481438.0
2016-Jun-30 01:32N 31°21' E 121°32'3 3.3
2016-Jun-30 00:33N 31°23' E 121°34'666590.2
2016-Jun-29 23:26N 23°03' E 113°19'6687313.4
2016-Jun-29 23:20N 31°18' E 121°44'664829.3
2016-Jun-29 22:32N 23°04' E 113°25'6172076.7
2016-Jun-29 22:14N 29°45' E 122°09'615853.1
2016-Jun-29 21:31N 23°05' E 113°28'0 0.0
2016-Jun-29 20:28N 23°05' E 113°28'0 0.0
2016-Jun-29 19:25N 23°05' E 113°28'0 0.0
2016-Jun-29 18:31N 23°05' E 113°28'0 0.1
2016-Jun-29 17:25N 23°05' E 113°28'0 0.0
2016-Jun-29 16:28N 23°05' E 113°28'0 0.0
2016-Jun-29 15:25N 23°05' E 113°28'0 0.0
2016-Jun-29 14:31N 23°05' E 113°28'0 0.0
2016-Jun-29 13:28N 23°05' E 113°28'0 0.1
2016-Jun-29 12:28N 23°05' E 113°28'0 0.0
2016-Jun-29 11:28N 23°05' E 113°28'0 0.0
2016-Jun-29 10:31N 23°05' E 113°28'0 0.0
2016-Jun-29 09:13N 23°05' E 113°28'0 0.0
2016-Jun-29 08:34N 23°05' E 113°28'200400.6
2016-Jun-29 08:04N 21°19' E 110°25'0 0.0
2016-Jun-29 07:33N 21°19' E 110°25'81671.4
2016-Jun-28 20:08N 30°02' E 121°59'5 8.7
2016-Jun-28 19:31N 29°58' E 122°03'8 8.3
2016-Jun-28 18:31N 29°51' E 122°08'11 5.6
2016-Jun-28 16:31N 29°42' E 122°02'805268.6
2016-Jun-28 13:31N 21°19' E 110°25'0 0.1
2016-Jun-28 12:29N 21°19' E 110°25'0 0.0
2016-Jun-28 11:12N 21°19' E 110°25'0 0.0
2016-Jun-28 10:32N 21°19' E 110°25'0 0.0
2016-Jun-28 09:33N 21°19' E 110°25'0 0.0
2016-Jun-28 08:33N 21°19' E 110°25'0 0.0
2016-Jun-28 07:33N 21°19' E 110°25'0 0.0
2016-Jun-28 06:33N 21°19' E 110°25'81361.5
2016-Jun-27 17:20N 29°46' E 122°08'618128.9
2016-Jun-27 12:33N 23°03' E 113°25'197741.6
2016-Jun-27 12:17N 21°19' E 110°25'0 0.0
2016-Jun-27 11:32N 21°19' E 110°25'2001590.2
2016-Jun-27 11:25N 23°05' E 113°28'20018.3
2016-Jun-27 00:29N 21°19' E 110°25'0 0.0
2016-Jun-26 09:32N 21°19' E 110°25'0 0.0
2016-Jun-26 08:33N 21°19' E 110°25'0 0.0
2016-Jun-26 05:24N 21°19' E 110°25'0 0.0
2016-Jun-26 03:33N 21°19' E 110°25'0 0.0
2016-Jun-26 00:22N 21°18' E 110°25'0 0.0
2016-Jun-25 10:30N 21°18' E 110°25'80660.4
2016-Jun-24 21:10N 29°43' E 122°02'5 8.5
2016-Jun-24 20:33N 29°48' E 122°04'8 7.6
2016-Jun-24 19:31N 29°55' E 122°08'7 7.1
2016-Jun-24 18:33N 29°59' E 122°02'9 6.2
2016-Jun-24 17:09N 30°07' E 121°57'21 1.4
2016-Jun-24 01:32N 29°48' E 122°06'9798.1
2016-Jun-24 00:33N 31°21' E 121°38'7 7.2
2016-Jun-23 23:33N 31°22' E 121°30'3 1.2
2016-Jun-23 21:19N 31°20' E 121°32'0 0.0
2016-Jun-23 16:04N 31°20' E 121°32'3 5.1
2016-Jun-23 15:33N 31°18' E 121°34'44554.0
2016-Jun-23 07:19N 38°43' E 121°38'44866.0
2016-Jun-23 00:32N 31°16' E 121°32'0 0.0
2016-Jun-22 22:29N 31°16' E 121°32'0 0.0
2016-Jun-22 21:29N 31°16' E 121°32'0 0.0
2016-Jun-22 20:32N 31°16' E 121°32'0 0.0
2016-Jun-22 18:10N 31°16' E 121°32'497587.0
2016-Jun-22 17:20N 38°58' E 117°50'4979033.2
2016-Jun-22 17:16N 31°16' E 121°32'499641.0
2016-Jun-22 16:30N 38°59' E 117°45'49920884.3
2016-Jun-22 16:28N 31°16' E 121°32'499517.5
2016-Jun-22 15:30N 38°59' E 117°45'49911440.1
2016-Jun-22 15:28N 31°16' E 121°32'0 0.0
2016-Jun-22 13:25N 31°16' E 121°32'0 0.0
2016-Jun-22 12:19N 31°16' E 121°32'0 0.0
2016-Jun-22 11:20N 31°16' E 121°32'0 0.0
2016-Jun-22 10:22N 31°16' E 121°32'0 0.0
2016-Jun-22 09:25N 31°16' E 121°32'0 0.0
2016-Jun-22 08:25N 31°16' E 121°32'0 0.0
2016-Jun-22 07:31N 31°16' E 121°32'0 0.1
2016-Jun-22 06:31N 31°16' E 121°32'0 0.1
2016-Jun-22 05:33N 31°16' E 121°32'0 0.0
2016-Jun-22 04:33N 31°16' E 121°32'0 0.0
2016-Jun-22 03:09N 31°16' E 121°32'0 0.0
2016-Jun-22 01:24N 31°16' E 121°32'0 0.0
2016-Jun-22 00:27N 31°16' E 121°32'0 0.0
2016-Jun-21 23:30N 31°16' E 121°32'0 0.0
2016-Jun-21 22:30N 31°16' E 121°32'0 0.0
2016-Jun-21 21:21N 31°16' E 121°32'0 0.0
2016-Jun-21 20:27N 31°16' E 121°32'0 0.0
2016-Jun-21 17:29N 31°16' E 121°32'0 0.0
2016-Jun-21 16:32N 31°16' E 121°32'0 0.0
2016-Jun-21 10:08N 31°16' E 121°32'0 0.0
2016-Jun-21 08:32N 31°16' E 121°32'0 0.1
2016-Jun-21 07:27N 31°16' E 121°32'  

Dump ship's entire track history